Time,TemperatureF,DewpointF,PressureIn,WindDirection,WindDirectionDegrees,WindSpeedMPH,WindSpeedGustMPH,Humidity,HourlyPrecipIn,Conditions,Clouds,dailyrainin,SoftwareType,DateUTC
2013-08-05 00:00:00,67.5,56.6,29.90,NNE,28,0.0,2.0,68,0.00,,,0.09,Wunderground v.1.15,2013-08-05 06:00:00,
2013-08-05 00:05:00,67.5,56.2,29.90,NNE,25,1.0,2.0,67,0.00,,,0.00,Wunderground v.1.15,2013-08-05 06:05:00,
2013-08-05 00:10:00,67.6,55.8,29.90,NNE,25,1.0,1.0,66,0.00,,,0.00,Wunderground v.1.15,2013-08-05 06:10:00,
2013-08-05 00:15:00,67.9,56.1,29.90,NNE,25,1.0,1.0,66,0.00,,,0.00,Wunderground v.1.15,2013-08-05 06:15:00,
2013-08-05 00:20:00,68.0,56.2,29.90,NNE,25,0.0,0.0,66,0.00,,,0.00,Wunderground v.1.15,2013-08-05 06:20:00,
2013-08-05 00:25:00,68.0,56.2,29.91,NNE,25,0.0,0.0,66,0.00,,,0.00,Wunderground v.1.15,2013-08-05 06:25:00,
2013-08-05 00:30:00,68.0,57.0,29.92,NNE,25,0.0,6.0,68,0.00,,,0.00,Wunderground v.1.15,2013-08-05 06:30:00,
2013-08-05 00:35:00,67.9,57.8,29.92,NNE,25,0.0,6.0,70,0.00,,,0.00,Wunderground v.1.15,2013-08-05 06:35:00,
2013-08-05 00:40:00,67.5,57.4,29.92,NNE,25,0.0,0.0,70,0.00,,,0.01,Wunderground v.1.15,2013-08-05 06:40:00,
2013-08-05 00:45:00,67.1,58.2,29.93,NNE,25,0.0,0.0,73,0.00,,,0.01,Wunderground v.1.15,2013-08-05 06:45:00,
2013-08-05 00:50:00,66.8,57.9,29.93,NNE,25,0.0,0.0,73,0.00,,,0.01,Wunderground v.1.15,2013-08-05 06:50:00,
2013-08-05 00:54:00,66.7,57.8,29.92,NNE,25,0.0,0.0,73,0.00,,,0.01,Wunderground v.1.15,2013-08-05 06:54:00,
2013-08-05 01:00:00,66.5,56.8,29.92,NNE,25,0.0,0.0,71,0.00,,,0.01,Wunderground v.1.15,2013-08-05 07:00:00,
2013-08-05 01:05:00,66.5,58.0,29.92,NNE,25,0.0,0.0,74,0.00,,,0.01,Wunderground v.1.15,2013-08-05 07:05:00,
2013-08-05 01:10:00,66.6,58.4,29.92,NNE,25,0.0,0.0,75,0.00,,,0.01,Wunderground v.1.15,2013-08-05 07:10:00,
2013-08-05 01:15:00,66.7,58.5,29.92,NNE,25,0.0,0.0,75,0.00,,,0.01,Wunderground v.1.15,2013-08-05 07:15:00,
2013-08-05 01:20:00,66.7,58.5,29.92,NNE,25,0.0,0.0,75,0.00,,,0.01,Wunderground v.1.15,2013-08-05 07:20:00,
2013-08-05 01:25:00,66.8,58.2,29.92,NNE,25,0.0,0.0,74,0.00,,,0.01,Wunderground v.1.15,2013-08-05 07:25:00,
2013-08-05 01:35:00,67.1,58.5,29.91,NNE,25,0.0,3.0,74,0.00,,,0.01,Wunderground v.1.15,2013-08-05 07:35:00,
2013-08-05 01:40:00,67.1,58.5,29.91,NNE,25,0.0,0.0,74,0.00,,,0.01,Wunderground v.1.15,2013-08-05 07:40:00,
2013-08-05 01:45:00,67.0,58.4,29.91,NNE,25,0.0,0.0,74,0.00,,,0.01,Wunderground v.1.15,2013-08-05 07:45:00,
2013-08-05 01:49:00,67.0,58.1,29.91,NNE,25,0.0,0.0,73,0.00,,,0.01,Wunderground v.1.15,2013-08-05 07:49:00,
2013-08-05 01:55:00,67.0,58.1,29.91,NNE,25,0.0,0.0,73,0.00,,,0.01,Wunderground v.1.15,2013-08-05 07:55:00,
2013-08-05 02:00:00,67.0,58.1,29.90,NNE,25,0.0,0.0,73,0.00,,,0.01,Wunderground v.1.15,2013-08-05 08:00:00,
2013-08-05 02:10:00,67.0,58.4,29.90,NNE,25,0.0,0.0,74,0.00,,,0.01,Wunderground v.1.15,2013-08-05 08:10:00,
2013-08-05 02:15:00,66.9,58.3,29.90,NNE,25,0.0,0.0,74,0.00,,,0.01,Wunderground v.1.15,2013-08-05 08:15:00,
2013-08-05 02:20:00,66.9,58.3,29.90,NNE,25,0.0,0.0,74,0.00,,,0.01,Wunderground v.1.15,2013-08-05 08:20:00,
2013-08-05 02:25:00,66.9,58.0,29.90,NNE,25,0.0,0.0,73,0.00,,,0.01,Wunderground v.1.15,2013-08-05 08:25:00,
2013-08-05 02:30:00,66.9,58.0,29.91,NNE,25,0.0,0.0,73,0.00,,,0.01,Wunderground v.1.15,2013-08-05 08:30:00,
2013-08-05 02:34:00,67.0,58.1,29.90,NNE,25,0.0,0.0,73,0.00,,,0.01,Wunderground v.1.15,2013-08-05 08:34:00,
2013-08-05 02:44:00,67.2,57.9,29.89,NNE,25,0.0,0.0,72,0.00,,,0.01,Wunderground v.1.15,2013-08-05 08:44:00,
2013-08-05 02:50:00,67.2,58.2,29.90,NNE,25,0.0,0.0,73,0.00,,,0.01,Wunderground v.1.15,2013-08-05 08:50:00,
2013-08-05 02:55:00,67.2,57.9,29.90,NNE,25,0.0,0.0,72,0.00,,,0.01,Wunderground v.1.15,2013-08-05 08:55:00,
2013-08-05 03:10:00,67.0,58.1,29.89,NNE,25,0.0,0.0,73,0.00,,,0.01,Wunderground v.1.15,2013-08-05 09:10:00,
2013-08-05 03:15:00,66.9,57.2,29.89,NNE,25,0.0,0.0,71,0.00,,,0.01,Wunderground v.1.15,2013-08-05 09:15:00,
2013-08-05 03:20:00,67.0,57.3,29.89,NNE,25,0.0,0.0,71,0.00,,,0.01,Wunderground v.1.15,2013-08-05 09:20:00,
2013-08-05 03:24:00,67.0,56.5,29.89,NNE,24,0.0,0.0,69,0.00,,,0.01,Wunderground v.1.15,2013-08-05 09:24:00,
2013-08-05 03:29:00,67.1,56.2,29.89,NNE,24,0.0,0.0,68,0.00,,,0.01,Wunderground v.1.15,2013-08-05 09:29:00,
2013-08-05 03:35:00,67.0,56.5,29.88,NNE,24,0.0,0.0,69,0.00,,,0.01,Wunderground v.1.15,2013-08-05 09:35:00,
2013-08-05 03:40:00,66.8,56.3,29.88,NNE,24,0.0,0.0,69,0.00,,,0.01,Wunderground v.1.15,2013-08-05 09:40:00,
2013-08-05 03:45:00,66.6,56.1,29.88,NNE,24,0.0,0.0,69,0.00,,,0.01,Wunderground v.1.15,2013-08-05 09:45:00,
2013-08-05 03:55:00,66.3,56.2,29.88,NNE,24,0.0,0.0,70,0.00,,,0.01,Wunderground v.1.15,2013-08-05 09:55:00,
2013-08-05 04:00:00,66.1,56.4,29.88,NNE,24,0.0,0.0,71,0.00,,,0.01,Wunderground v.1.15,2013-08-05 10:00:00,
2013-08-05 04:10:00,65.8,56.1,29.88,NNE,24,0.0,0.0,71,0.00,,,0.01,Wunderground v.1.15,2013-08-05 10:10:00,
2013-08-05 04:15:00,65.7,56.4,29.89,NNE,24,0.0,0.0,72,0.00,,,0.01,Wunderground v.1.15,2013-08-05 10:15:00,
2013-08-05 04:20:00,65.6,56.3,29.88,NNE,24,0.0,0.0,72,0.00,,,0.01,Wunderground v.1.15,2013-08-05 10:20:00,
2013-08-05 04:30:00,65.4,56.1,29.89,NNE,24,0.0,4.0,72,0.00,,,0.01,Wunderground v.1.15,2013-08-05 10:30:00,
2013-08-05 04:35:00,65.3,56.4,29.89,NNE,24,0.0,4.0,73,0.00,,,0.01,Wunderground v.1.15,2013-08-05 10:35:00,
2013-08-05 04:40:00,65.3,56.4,29.89,NNE,24,0.0,0.0,73,0.00,,,0.01,Wunderground v.1.15,2013-08-05 10:40:00,
2013-08-05 04:45:00,65.2,56.3,29.89,NNE,24,0.0,0.0,73,0.00,,,0.01,Wunderground v.1.15,2013-08-05 10:45:00,
2013-08-05 04:49:00,65.1,56.2,29.88,NNE,24,0.0,0.0,73,0.00,,,0.01,Wunderground v.1.15,2013-08-05 10:49:00,
2013-08-05 04:54:00,65.1,56.2,29.89,NNE,24,0.0,0.0,73,0.00,,,0.01,Wunderground v.1.15,2013-08-05 10:54:00,
2013-08-05 05:00:00,65.2,55.9,29.88,NNE,24,0.0,0.0,72,0.00,,,0.01,Wunderground v.1.15,2013-08-05 11:00:00,
2013-08-05 05:05:00,65.5,55.8,29.89,NNE,24,0.0,0.0,71,0.00,,,0.01,Wunderground v.1.15,2013-08-05 11:05:00,
2013-08-05 05:10:00,65.7,56.0,29.89,NNE,24,0.0,0.0,71,0.00,,,0.01,Wunderground v.1.15,2013-08-05 11:10:00,
2013-08-05 05:15:00,65.8,56.1,29.89,NNE,24,0.0,0.0,71,0.00,,,0.01,Wunderground v.1.15,2013-08-05 11:15:00,
2013-08-05 05:40:00,65.4,56.1,29.91,NNE,24,0.0,0.0,72,0.00,,,0.01,Wunderground v.1.15,2013-08-05 11:40:00,
2013-08-05 05:44:00,65.3,56.0,29.90,NNE,24,0.0,0.0,72,0.00,,,0.01,Wunderground v.1.15,2013-08-05 11:44:00,
2013-08-05 05:50:00,65.2,55.9,29.90,NNE,24,0.0,0.0,72,0.00,,,0.01,Wunderground v.1.15,2013-08-05 11:50:00,
2013-08-05 05:55:00,65.1,56.2,29.91,NNE,24,0.0,0.0,73,0.00,,,0.01,Wunderground v.1.15,2013-08-05 11:55:00,
2013-08-05 06:00:00,64.8,56.3,29.91,NNE,24,0.0,0.0,74,0.00,,,0.01,Wunderground v.1.15,2013-08-05 12:00:00,
2013-08-05 06:05:00,64.5,56.0,29.92,NNE,24,0.0,0.0,74,0.00,,,0.01,Wunderground v.1.15,2013-08-05 12:05:00,
2013-08-05 06:10:00,64.3,56.2,29.91,NNE,24,0.0,0.0,75,0.00,,,0.01,Wunderground v.1.15,2013-08-05 12:10:00,
2013-08-05 06:15:00,64.1,56.0,29.91,NNE,24,0.0,0.0,75,0.00,,,0.01,Wunderground v.1.15,2013-08-05 12:15:00,
2013-08-05 06:20:00,64.0,56.3,29.91,NNE,24,0.0,0.0,76,0.00,,,0.01,Wunderground v.1.15,2013-08-05 12:20:00,
2013-08-05 06:35:00,63.7,56.0,29.92,NNE,24,0.0,0.0,76,0.00,,,0.01,Wunderground v.1.15,2013-08-05 12:35:00,
2013-08-05 06:39:00,63.7,56.4,29.91,NNE,24,0.0,0.0,77,0.00,,,0.01,Wunderground v.1.15,2013-08-05 12:39:00,
2013-08-05 06:45:00,63.7,56.4,29.92,NNE,24,0.0,0.0,77,0.00,,,0.01,Wunderground v.1.15,2013-08-05 12:45:00,
2013-08-05 06:50:00,63.6,56.3,29.92,NNE,24,0.0,0.0,77,0.00,,,0.01,Wunderground v.1.15,2013-08-05 12:50:00,
2013-08-05 06:54:00,63.6,56.3,29.92,NNE,24,0.0,0.0,77,0.00,,,0.01,Wunderground v.1.15,2013-08-05 12:54:00,
2013-08-05 07:00:00,63.5,56.5,29.92,NNE,24,0.0,0.0,78,0.00,,,0.01,Wunderground v.1.15,2013-08-05 13:00:00,
2013-08-05 07:05:00,63.6,56.6,29.92,NNE,24,0.0,0.0,78,0.00,,,0.01,Wunderground v.1.15,2013-08-05 13:05:00,
2013-08-05 07:10:00,63.7,56.7,29.92,NNE,24,0.0,0.0,78,0.00,,,0.01,Wunderground v.1.15,2013-08-05 13:10:00,
2013-08-05 07:15:00,63.7,57.1,29.92,NNE,24,0.0,0.0,79,0.00,,,0.01,Wunderground v.1.15,2013-08-05 13:15:00,
2013-08-05 07:20:00,63.7,57.1,29.93,NNE,24,0.0,0.0,79,0.00,,,0.01,Wunderground v.1.15,2013-08-05 13:20:00,
2013-08-05 07:30:00,63.7,57.1,29.93,NNE,24,0.0,0.0,79,0.00,,,0.01,Wunderground v.1.15,2013-08-05 13:30:00,
2013-08-05 07:35:00,63.8,57.5,29.93,NNE,24,0.0,0.0,80,0.00,,,0.01,Wunderground v.1.15,2013-08-05 13:35:00,
2013-08-05 07:40:00,64.1,57.8,29.93,NNE,24,0.0,0.0,80,0.00,,,0.01,Wunderground v.1.15,2013-08-05 13:40:00,
2013-08-05 07:45:00,64.8,58.1,29.93,NNE,24,0.0,0.0,79,0.00,,,0.01,Wunderground v.1.15,2013-08-05 13:45:00,
2013-08-05 07:50:00,65.4,58.4,29.94,NNE,24,0.0,0.0,78,0.00,,,0.01,Wunderground v.1.15,2013-08-05 13:50:00,
2013-08-05 07:55:00,66.0,58.6,29.93,NNE,24,0.0,0.0,77,0.00,,,0.01,Wunderground v.1.15,2013-08-05 13:55:00,
2013-08-05 08:00:00,66.7,58.5,29.94,NNE,24,0.0,0.0,75,0.00,,,0.01,Wunderground v.1.15,2013-08-05 14:00:00,
2013-08-05 08:10:00,67.9,58.5,29.94,NNE,24,0.0,0.0,72,0.00,,,0.01,Wunderground v.1.15,2013-08-05 14:10:00,
2013-08-05 08:15:00,68.4,58.6,29.94,NNE,24,0.0,0.0,71,0.00,,,0.01,Wunderground v.1.15,2013-08-05 14:15:00,
2013-08-05 08:30:00,69.6,58.6,29.94,NNE,24,0.0,0.0,68,0.00,,,0.01,Wunderground v.1.15,2013-08-05 14:30:00,
2013-08-05 08:35:00,70.0,59.0,29.94,NNE,24,0.0,0.0,68,0.00,,,0.01,Wunderground v.1.15,2013-08-05 14:35:00,
2013-08-05 08:40:00,70.4,58.9,29.94,NNE,24,0.0,0.0,67,0.00,,,0.01,Wunderground v.1.15,2013-08-05 14:40:00,
2013-08-05 08:45:00,71.1,58.7,29.94,NNE,24,0.0,0.0,65,0.00,,,0.01,Wunderground v.1.15,2013-08-05 14:45:00,
2013-08-05 08:50:00,71.7,58.9,29.94,NNE,24,0.0,0.0,64,0.00,,,0.01,Wunderground v.1.15,2013-08-05 14:50:00,
2013-08-05 09:00:00,72.0,58.3,29.94,NNE,24,0.0,0.0,62,0.00,,,0.01,Wunderground v.1.15,2013-08-05 15:00:00,
2013-08-05 09:10:00,72.2,58.9,29.94,NNE,24,0.0,0.0,63,0.00,,,0.01,Wunderground v.1.15,2013-08-05 15:10:00,
2013-08-05 09:14:00,72.6,58.8,29.94,NNE,24,0.0,0.0,62,0.00,,,0.01,Wunderground v.1.15,2013-08-05 15:14:00,
2013-08-05 09:25:00,74.2,59.4,29.95,NNE,24,0.0,0.0,60,0.00,,,0.01,Wunderground v.1.15,2013-08-05 15:25:00,
2013-08-05 09:30:00,74.9,59.6,29.95,NNE,24,0.0,0.0,59,0.00,,,0.01,Wunderground v.1.15,2013-08-05 15:30:00,
2013-08-05 09:35:00,75.4,59.1,29.95,NNE,24,0.0,0.0,57,0.00,,,0.01,Wunderground v.1.15,2013-08-05 15:35:00,
2013-08-05 09:40:00,75.9,59.1,29.94,NNE,24,0.0,0.0,56,0.00,,,0.01,Wunderground v.1.15,2013-08-05 15:40:00,
2013-08-05 09:45:00,76.1,58.8,29.94,NNE,24,0.0,0.0,55,0.00,,,0.01,Wunderground v.1.15,2013-08-05 15:45:00,
2013-08-05 09:54:00,76.2,58.9,29.94,NNE,24,0.0,0.0,55,0.00,,,0.01,Wunderground v.1.15,2013-08-05 15:54:00,
2013-08-05 10:00:00,76.2,58.3,29.94,NNE,24,0.0,0.0,54,0.00,,,0.01,Wunderground v.1.15,2013-08-05 16:00:00,
2013-08-05 10:05:00,76.1,58.8,29.95,NNE,24,0.0,0.0,55,0.00,,,0.01,Wunderground v.1.15,2013-08-05 16:05:00,
2013-08-05 10:09:00,76.2,58.9,29.94,NNE,24,0.0,0.0,55,0.00,,,0.01,Wunderground v.1.15,2013-08-05 16:09:00,
2013-08-05 10:14:00,76.4,59.0,29.95,NNE,24,0.0,0.0,55,0.00,,,0.01,Wunderground v.1.15,2013-08-05 16:14:00,
2013-08-05 10:30:00,77.1,58.6,29.95,NNE,24,0.0,1.0,53,0.00,,,0.01,Wunderground v.1.15,2013-08-05 16:30:00,
2013-08-05 10:35:00,77.2,58.2,29.94,NNE,24,0.0,1.0,52,0.00,,,0.01,Wunderground v.1.15,2013-08-05 16:35:00,
2013-08-05 10:45:00,77.7,58.1,29.94,NNE,24,0.0,0.0,51,0.00,,,0.01,Wunderground v.1.15,2013-08-05 16:45:00,
2013-08-05 10:50:00,77.9,57.8,29.94,NNE,24,0.0,0.0,50,0.00,,,0.01,Wunderground v.1.15,2013-08-05 16:50:00,
2013-08-05 10:55:00,78.0,58.4,29.93,NNE,24,0.0,0.0,51,0.00,,,0.01,Wunderground v.1.15,2013-08-05 16:55:00,
2013-08-05 11:00:00,78.4,58.2,29.93,NNE,23,0.0,0.0,50,0.00,,,0.01,Wunderground v.1.15,2013-08-05 17:00:00,
2013-08-05 11:09:00,79.2,57.2,29.93,NNE,23,0.0,0.0,47,0.00,,,0.01,Wunderground v.1.15,2013-08-05 17:09:00,
2013-08-05 11:19:00,79.5,56.9,29.93,NNE,22,0.0,1.0,46,0.00,,,0.01,Wunderground v.1.15,2013-08-05 17:19:00,
2013-08-05 11:25:00,79.6,54.5,29.93,NNE,22,0.0,1.0,42,0.00,,,0.01,Wunderground v.1.15,2013-08-05 17:25:00,
2013-08-05 11:30:00,79.9,54.8,29.93,NNE,22,0.0,0.0,42,0.00,,,0.01,Wunderground v.1.15,2013-08-05 17:30:00,
2013-08-05 11:34:00,80.1,54.3,29.93,NNE,22,0.0,0.0,41,0.00,,,0.01,Wunderground v.1.15,2013-08-05 17:34:00,
2013-08-05 11:45:00,80.7,54.8,29.93,NNE,22,0.0,0.0,41,0.00,,,0.01,Wunderground v.1.15,2013-08-05 17:45:00,
2013-08-05 11:50:00,81.0,55.7,29.92,NNE,22,0.0,0.0,42,0.00,,,0.01,Wunderground v.1.15,2013-08-05 17:50:00,
2013-08-05 11:55:00,81.3,55.3,29.92,NNE,22,0.0,0.0,41,0.00,,,0.01,Wunderground v.1.15,2013-08-05 17:55:00,
2013-08-05 12:00:00,81.8,55.1,29.92,NNE,16,0.0,1.0,40,0.00,,,0.01,Wunderground v.1.15,2013-08-05 18:00:00,
2013-08-05 12:05:00,82.1,55.4,29.92,NNE,16,0.0,1.0,40,0.00,,,0.01,Wunderground v.1.15,2013-08-05 18:05:00,
2013-08-05 12:10:00,82.4,55.7,29.92,NNE,16,0.0,0.0,40,0.00,,,0.01,Wunderground v.1.15,2013-08-05 18:10:00,
2013-08-05 12:30:00,83.2,55.7,29.91,NNE,13,1.0,1.0,39,0.00,,,0.01,Wunderground v.1.15,2013-08-05 18:30:00,
2013-08-05 12:35:00,83.5,55.9,29.91,NNE,13,0.0,1.0,39,0.00,,,0.01,Wunderground v.1.15,2013-08-05 18:35:00,
2013-08-05 12:40:00,83.9,56.3,29.91,NNE,13,0.0,0.0,39,0.00,,,0.01,Wunderground v.1.15,2013-08-05 18:40:00,
2013-08-05 12:45:00,84.3,55.2,29.91,NNW,345,1.0,3.0,37,0.00,,,0.01,Wunderground v.1.15,2013-08-05 18:45:00,
2013-08-05 12:50:00,84.3,54.4,29.91,North,351,1.0,1.0,36,0.00,,,0.01,Wunderground v.1.15,2013-08-05 18:50:00,
2013-08-05 12:55:00,84.4,54.5,29.90,NNW,346,1.0,3.0,36,0.00,,,0.01,Wunderground v.1.15,2013-08-05 18:55:00,
2013-08-05 13:00:00,84.0,54.9,29.90,NNW,348,2.0,2.0,37,0.00,,,0.01,Wunderground v.1.15,2013-08-05 19:00:00,
2013-08-05 13:05:00,83.9,54.1,29.90,North,355,2.0,2.0,36,0.00,,,0.01,Wunderground v.1.15,2013-08-05 19:05:00,
2013-08-05 13:10:00,84.0,54.9,29.90,WNW,296,1.0,1.0,37,0.00,,,0.01,Wunderground v.1.15,2013-08-05 19:10:00,
2013-08-05 13:25:00,84.7,54.8,29.89,North,355,2.0,3.0,36,0.00,,,0.01,Wunderground v.1.15,2013-08-05 19:25:00,
2013-08-05 13:30:00,84.7,55.5,29.89,North,355,1.0,1.0,37,0.00,,,0.01,Wunderground v.1.15,2013-08-05 19:30:00,
2013-08-05 13:35:00,85.2,56.0,29.89,North,355,1.0,1.0,37,0.00,,,0.01,Wunderground v.1.15,2013-08-05 19:35:00,
2013-08-05 13:40:00,86.0,54.4,29.89,WNW,283,1.0,1.0,34,0.00,,,0.01,Wunderground v.1.15,2013-08-05 19:40:00,
2013-08-05 13:55:00,86.9,56.0,29.88,North,350,0.0,1.0,35,0.00,,,0.01,Wunderground v.1.15,2013-08-05 19:55:00,
2013-08-05 14:00:00,87.3,54.7,29.88,North,350,1.0,1.0,33,0.00,,,0.01,Wunderground v.1.15,2013-08-05 20:00:00,
2013-08-05 14:05:00,87.2,55.4,29.88,North,350,1.0,1.0,34,0.00,,,0.01,Wunderground v.1.15,2013-08-05 20:05:00,
2013-08-05 14:15:00,87.1,55.3,29.88,North,350,1.0,1.0,34,0.00,,,0.01,Wunderground v.1.15,2013-08-05 20:15:00,
2013-08-05 14:25:00,87.4,55.6,29.87,North,355,2.0,2.0,34,0.00,,,0.01,Wunderground v.1.15,2013-08-05 20:25:00,
2013-08-05 14:35:00,88.5,54.9,29.86,North,355,0.0,1.0,32,0.00,,,0.01,Wunderground v.1.15,2013-08-05 20:35:00,
2013-08-05 14:45:00,88.8,55.1,29.85,NNW,347,1.0,2.0,32,0.00,,,0.01,Wunderground v.1.15,2013-08-05 20:45:00,
2013-08-05 14:50:00,88.6,55.0,29.85,North,350,1.0,1.0,32,0.00,,,0.01,Wunderground v.1.15,2013-08-05 20:50:00,
2013-08-05 14:55:00,88.8,56.0,29.85,North,350,1.0,1.0,33,0.00,,,0.01,Wunderground v.1.15,2013-08-05 20:55:00,
2013-08-05 15:00:00,89.0,54.4,29.85,North,355,1.0,1.0,31,0.00,,,0.01,Wunderground v.1.15,2013-08-05 21:00:00,
2013-08-05 15:05:00,89.0,54.4,29.84,North,355,1.0,1.0,31,0.00,,,0.01,Wunderground v.1.15,2013-08-05 21:05:00,
2013-08-05 15:10:00,88.8,54.3,29.84,North,355,2.0,2.0,31,0.00,,,0.01,Wunderground v.1.15,2013-08-05 21:10:00,
2013-08-05 15:15:00,89.0,54.4,29.84,North,355,1.0,2.0,31,0.00,,,0.01,Wunderground v.1.15,2013-08-05 21:15:00,
2013-08-05 15:20:00,89.9,56.9,29.84,North,355,0.0,3.0,33,0.00,,,0.01,Wunderground v.1.15,2013-08-05 21:20:00,
2013-08-05 15:25:00,90.9,55.2,29.84,North,355,0.0,3.0,30,0.00,,,0.01,Wunderground v.1.15,2013-08-05 21:25:00,
2013-08-05 15:30:00,91.1,55.3,29.83,North,355,1.0,1.0,30,0.00,,,0.01,Wunderground v.1.15,2013-08-05 21:30:00,
2013-08-05 15:45:00,90.0,55.3,29.84,NNW,348,1.0,3.0,31,0.00,,,0.01,Wunderground v.1.15,2013-08-05 21:45:00,
2013-08-05 15:50:00,90.4,54.7,29.83,NNW,348,0.0,0.0,30,0.00,,,0.01,Wunderground v.1.15,2013-08-05 21:50:00,
2013-08-05 15:55:00,90.8,55.1,29.83,North,355,0.0,1.0,30,0.00,,,0.01,Wunderground v.1.15,2013-08-05 21:55:00,
2013-08-05 16:00:00,90.7,54.1,29.83,North,5,1.0,1.0,29,0.00,,,0.01,Wunderground v.1.15,2013-08-05 22:00:00,
2013-08-05 16:20:00,90.0,54.4,29.82,North,355,1.0,1.0,30,0.00,,,0.01,Wunderground v.1.15,2013-08-05 22:20:00,
2013-08-05 16:30:00,90.5,53.9,29.82,North,355,0.0,3.0,29,0.00,,,0.01,Wunderground v.1.15,2013-08-05 22:30:00,
2013-08-05 16:35:00,90.5,53.9,29.82,North,355,0.0,3.0,29,0.00,,,0.01,Wunderground v.1.15,2013-08-05 22:35:00,
2013-08-05 16:45:00,89.0,54.4,29.82,North,355,1.0,1.0,31,0.00,,,0.01,Wunderground v.1.15,2013-08-05 22:45:00,
2013-08-05 16:50:00,88.3,52.9,29.82,North,355,0.0,0.0,30,0.00,,,0.01,Wunderground v.1.15,2013-08-05 22:50:00,
2013-08-05 17:00:00,87.5,54.0,29.83,North,355,0.0,0.0,32,0.00,,,0.01,Wunderground v.1.15,2013-08-05 23:00:00,
2013-08-05 17:05:00,87.3,53.8,29.83,North,355,0.0,0.0,32,0.00,,,0.01,Wunderground v.1.15,2013-08-05 23:05:00,
2013-08-05 17:15:00,86.0,54.4,29.84,WNW,293,1.0,3.0,34,0.00,,,0.01,Wunderground v.1.15,2013-08-05 23:15:00,
2013-08-05 17:20:00,84.8,53.3,29.84,WNW,289,1.0,2.0,34,0.00,,,0.01,Wunderground v.1.15,2013-08-05 23:20:00,
2013-08-05 17:30:00,82.5,53.6,29.83,WNW,286,1.0,2.0,37,0.00,,,0.01,Wunderground v.1.15,2013-08-05 23:30:00,
2013-08-05 17:35:00,81.8,53.0,29.83,WNW,286,1.0,2.0,37,0.00,,,0.01,Wunderground v.1.15,2013-08-05 23:35:00,
2013-08-05 17:40:00,81.4,52.6,29.83,WNW,286,0.0,0.0,37,0.00,,,0.01,Wunderground v.1.15,2013-08-05 23:40:00,
2013-08-05 17:45:00,81.1,53.1,29.82,WNW,286,0.0,0.0,38,0.00,,,0.01,Wunderground v.1.15,2013-08-05 23:45:00,
2013-08-05 17:55:00,80.9,52.2,29.82,WNW,286,0.0,0.0,37,0.00,,,0.01,Wunderground v.1.15,2013-08-05 23:55:00,
2013-08-05 18:05:00,81.1,52.4,29.81,WNW,286,0.0,0.0,37,0.00,,,0.01,Wunderground v.1.15,2013-08-06 00:05:00,
2013-08-05 18:10:00,81.6,53.5,29.81,WNW,288,0.0,0.0,38,0.00,,,0.01,Wunderground v.1.15,2013-08-06 00:10:00,
2013-08-05 18:15:00,81.7,53.6,29.81,WNW,288,0.0,0.0,38,0.00,,,0.01,Wunderground v.1.15,2013-08-06 00:15:00,
2013-08-05 18:20:00,81.7,52.9,29.80,WNW,288,0.0,0.0,37,0.00,,,0.01,Wunderground v.1.15,2013-08-06 00:20:00,
2013-08-05 18:25:00,81.8,53.0,29.80,WNW,288,0.0,0.0,37,0.00,,,0.01,Wunderground v.1.15,2013-08-06 00:25:00,
2013-08-05 18:30:00,81.8,53.0,29.80,WNW,288,0.0,7.0,37,0.00,,,0.01,Wunderground v.1.15,2013-08-06 00:30:00,
2013-08-05 18:35:00,81.8,53.0,29.80,WNW,288,0.0,7.0,37,0.00,,,0.01,Wunderground v.1.15,2013-08-06 00:35:00,
2013-08-05 18:40:00,81.8,52.2,29.80,WNW,288,0.0,0.0,36,0.00,,,0.01,Wunderground v.1.15,2013-08-06 00:40:00,
2013-08-05 18:55:00,82.0,51.6,29.80,WNW,288,0.0,0.0,35,0.00,,,0.01,Wunderground v.1.15,2013-08-06 00:55:00,
2013-08-05 19:00:00,82.0,51.6,29.80,WNW,288,0.0,0.0,35,0.00,,,0.01,Wunderground v.1.15,2013-08-06 01:00:00,
2013-08-05 19:05:00,82.1,51.7,29.80,WNW,288,0.0,0.0,35,0.00,,,0.01,Wunderground v.1.15,2013-08-06 01:05:00,
2013-08-05 19:10:00,82.1,52.5,29.80,WNW,288,0.0,0.0,36,0.00,,,0.01,Wunderground v.1.15,2013-08-06 01:10:00,
2013-08-05 19:15:00,82.1,52.5,29.80,WNW,288,0.0,0.0,36,0.00,,,0.01,Wunderground v.1.15,2013-08-06 01:15:00,
2013-08-05 19:20:00,82.0,52.4,29.80,WNW,288,0.0,0.0,36,0.00,,,0.01,Wunderground v.1.15,2013-08-06 01:20:00,
2013-08-05 19:25:00,82.0,52.4,29.81,WNW,288,0.0,0.0,36,0.00,,,0.01,Wunderground v.1.15,2013-08-06 01:25:00,
2013-08-05 19:30:00,82.1,52.5,29.81,WNW,288,0.0,4.0,36,0.00,,,0.01,Wunderground v.1.15,2013-08-06 01:30:00,
2013-08-05 19:35:00,82.0,52.4,29.81,WNW,288,0.0,4.0,36,0.00,,,0.01,Wunderground v.1.15,2013-08-06 01:35:00,
2013-08-05 19:45:00,81.6,52.8,29.82,WNW,288,0.0,0.0,37,0.00,,,0.01,Wunderground v.1.15,2013-08-06 01:45:00,
2013-08-05 19:55:00,80.9,53.6,29.82,WNW,288,0.0,0.0,39,0.00,,,0.01,Wunderground v.1.15,2013-08-06 01:55:00,
2013-08-05 20:00:00,80.5,53.3,29.82,WNW,288,0.0,0.0,39,0.00,,,0.01,Wunderground v.1.15,2013-08-06 02:00:00,
2013-08-05 20:05:00,80.1,52.9,29.82,WNW,288,0.0,0.0,39,0.00,,,0.01,Wunderground v.1.15,2013-08-06 02:05:00,
2013-08-05 20:10:00,79.8,53.3,29.82,WNW,288,0.0,0.0,40,0.00,,,0.01,Wunderground v.1.15,2013-08-06 02:10:00,
2013-08-05 20:15:00,79.5,53.1,29.82,WNW,288,0.0,0.0,40,0.00,,,0.01,Wunderground v.1.15,2013-08-06 02:15:00,
2013-08-05 20:25:00,78.9,53.9,29.83,WNW,288,0.0,0.0,42,0.00,,,0.01,Wunderground v.1.15,2013-08-06 02:25:00,
2013-08-05 20:30:00,78.7,53.7,29.83,WNW,288,0.0,1.0,42,0.00,,,0.01,Wunderground v.1.15,2013-08-06 02:30:00,
2013-08-05 20:40:00,78.4,54.0,29.83,WNW,288,0.0,0.0,43,0.00,,,0.01,Wunderground v.1.15,2013-08-06 02:40:00,
2013-08-05 21:00:00,77.8,54.8,29.83,WNW,288,0.0,0.0,45,0.00,,,0.01,Wunderground v.1.15,2013-08-06 03:00:00,
2013-08-05 21:05:00,77.7,54.7,29.83,WNW,288,0.0,0.0,45,0.00,,,0.01,Wunderground v.1.15,2013-08-06 03:05:00,
2013-08-05 21:10:00,77.5,55.1,29.83,WNW,288,0.0,0.0,46,0.00,,,0.01,Wunderground v.1.15,2013-08-06 03:10:00,
2013-08-05 21:20:00,77.1,54.7,29.83,WNW,288,0.0,0.0,46,0.00,,,0.01,Wunderground v.1.15,2013-08-06 03:20:00,
2013-08-05 21:25:00,76.9,54.5,29.84,WNW,288,0.0,0.0,46,0.00,,,0.01,Wunderground v.1.15,2013-08-06 03:25:00,
2013-08-05 21:30:00,76.7,54.4,29.84,WNW,288,0.0,0.0,46,0.00,,,0.01,Wunderground v.1.15,2013-08-06 03:30:00,
2013-08-05 21:35:00,76.6,54.9,29.84,WNW,288,0.0,0.0,47,0.00,,,0.01,Wunderground v.1.15,2013-08-06 03:35:00,
2013-08-05 21:40:00,76.4,54.7,29.85,WNW,288,0.0,0.0,47,0.00,,,0.01,Wunderground v.1.15,2013-08-06 03:40:00,
2013-08-05 21:45:00,76.2,55.1,29.85,WNW,288,0.0,0.0,48,0.00,,,0.01,Wunderground v.1.15,2013-08-06 03:45:00,
2013-08-05 21:55:00,75.8,54.1,29.86,WNW,288,0.0,0.0,47,0.00,,,0.01,Wunderground v.1.15,2013-08-06 03:55:00,
2013-08-05 22:00:00,75.7,54.0,29.86,WNW,288,0.0,0.0,47,0.00,,,0.01,Wunderground v.1.15,2013-08-06 04:00:00,
2013-08-05 22:05:00,75.6,54.5,29.86,WNW,288,0.0,0.0,48,0.00,,,0.01,Wunderground v.1.15,2013-08-06 04:05:00,
2013-08-05 22:10:00,75.5,54.4,29.86,WNW,288,0.0,0.0,48,0.00,,,0.01,Wunderground v.1.15,2013-08-06 04:10:00,
2013-08-05 22:15:00,75.6,54.5,29.86,WNW,288,0.0,0.0,48,0.00,,,0.01,Wunderground v.1.15,2013-08-06 04:15:00,
2013-08-05 22:20:00,75.8,54.7,29.87,WNW,288,0.0,0.0,48,0.00,,,0.01,Wunderground v.1.15,2013-08-06 04:20:00,
2013-08-05 22:25:00,75.8,54.1,29.87,WNW,288,0.0,0.0,47,0.00,,,0.01,Wunderground v.1.15,2013-08-06 04:25:00,
2013-08-05 22:35:00,75.5,53.9,29.87,WNW,288,0.0,0.0,47,0.00,,,0.01,Wunderground v.1.15,2013-08-06 04:35:00,
2013-08-05 22:40:00,75.4,53.8,29.88,WNW,288,0.0,0.0,47,0.00,,,0.01,Wunderground v.1.15,2013-08-06 04:40:00,
2013-08-05 22:50:00,75.4,54.3,29.88,WNW,288,0.0,0.0,48,0.00,,,0.01,Wunderground v.1.15,2013-08-06 04:50:00,
2013-08-05 22:55:00,75.5,53.9,29.87,WNW,288,0.0,0.0,47,0.00,,,0.01,Wunderground v.1.15,2013-08-06 04:55:00,
2013-08-05 23:00:00,75.6,53.9,29.88,WNW,288,0.0,0.0,47,0.00,,,0.01,Wunderground v.1.15,2013-08-06 05:00:00,
2013-08-05 23:05:00,75.6,53.9,29.88,WNW,288,0.0,0.0,47,0.00,,,0.01,Wunderground v.1.15,2013-08-06 05:05:00,
2013-08-05 23:10:00,75.6,54.5,29.88,WNW,288,0.0,0.0,48,0.00,,,0.01,Wunderground v.1.15,2013-08-06 05:10:00,
2013-08-05 23:20:00,75.6,54.5,29.87,WNW,288,0.0,0.0,48,0.00,,,0.01,Wunderground v.1.15,2013-08-06 05:20:00,
2013-08-05 23:25:00,75.5,53.9,29.87,WNW,288,0.0,1.0,47,0.00,,,0.01,Wunderground v.1.15,2013-08-06 05:25:00,
2013-08-05 23:30:00,75.3,53.7,29.87,WNW,288,0.0,0.0,47,0.00,,,0.01,Wunderground v.1.15,2013-08-06 05:30:00,
2013-08-05 23:35:00,75.2,53.0,29.87,WNW,288,0.0,0.0,46,0.00,,,0.01,Wunderground v.1.15,2013-08-06 05:35:00,
2013-08-05 23:40:00,75.0,52.2,29.87,WNW,288,0.0,0.0,45,0.00,,,0.01,Wunderground v.1.15,2013-08-06 05:40:00,
2013-08-05 23:45:00,74.8,52.0,29.87,WNW,288,0.0,0.0,45,0.00,,,0.01,Wunderground v.1.15,2013-08-06 05:45:00,
2013-08-05 23:50:00,74.6,51.2,29.87,WNW,288,0.0,0.0,44,0.00,,,0.01,Wunderground v.1.15,2013-08-06 05:50:00,
2013-08-05 23:55:00,74.5,51.2,29.87,WNW,288,0.0,0.0,44,0.00,,,0.01,Wunderground v.1.15,2013-08-06 05:55:00,